Time;durP1;ratioP1;P1;durP2;ratioP2;P2;SDS_P1;SDS_P2;PMS_P1;PMS_P2;Temp;Humidity;BMP_temperature;BMP_pressure;BME280_temperature;BME280_humidity;BME280_pressure;Samples;Min_cycle;Max_cycle;Signal;HPM_P1;HPM_P2
2023/04/17 00:00:49;;;;;;;39.10;31.83;;;12.80;99.90;;;;;;4951922;28;20580;-85
2023/04/17 00:03:17;;;;;;;39.57;31.47;;;12.90;99.90;;;;;;4955180;28;20529;-82
2023/04/17 00:05:47;;;;;;;39.33;30.03;;;12.80;99.90;;;;;;4940996;29;20477;-81
2023/04/17 00:08:20;;;;;;;41.00;32.20;;;12.90;99.90;;;;;;4952007;28;20977;-82
2023/04/17 00:10:49;;;;;;;44.33;34.57;;;13.00;99.90;;;;;;4951950;28;20454;-85
2023/04/17 00:13:26;;;;;;;37.93;31.83;;;12.90;99.90;;;;;;4936620;29;20488;-81
2023/04/17 00:15:55;;;;;;;44.33;33.63;;;12.90;99.90;;;;;;4954395;28;20485;-83
2023/04/17 00:18:22;;;;;;;38.60;32.00;;;12.90;99.90;;;;;;4956533;28;20510;-84
2023/04/17 00:20:52;;;;;;;38.53;32.30;;;12.90;99.90;;;;;;4955140;28;21017;-83
2023/04/17 00:23:31;;;;;;;39.10;32.70;;;12.90;99.90;;;;;;4941700;29;20485;-84
2023/04/17 00:26:04;;;;;;;37.30;30.93;;;12.90;99.90;;;;;;4959219;28;20544;-83
2023/04/17 00:28:32;;;;;;;38.77;31.40;;;12.90;99.90;;;;;;4944663;28;20462;-84
2023/04/17 00:31:01;;;;;;;39.73;32.13;;;13.10;99.90;;;;;;4935112;29;20510;-85
2023/04/17 00:33:35;;;;;;;44.50;33.00;;;13.00;99.90;;;;;;4934016;29;20486;-84
2023/04/17 00:36:04;;;;;;;38.33;30.63;;;12.90;99.90;;;;;;4933105;29;20472;-86
2023/04/17 00:38:38;;;;;;;41.17;32.27;;;12.80;99.90;;;;;;4958876;28;20468;-81
2023/04/17 00:41:06;;;;;;;40.00;29.00;;;12.80;99.90;;;;;;4946201;29;20426;-83
2023/04/17 00:43:40;;;;;;;39.80;31.60;;;13.00;99.90;;;;;;4945078;28;20463;-83
2023/04/17 00:46:12;;;;;;;37.70;29.67;;;13.00;99.90;;;;;;4961663;28;21017;-84
2023/04/17 00:48:43;;;;;;;41.20;32.20;;;12.80;99.90;;;;;;4946535;29;20453;-81
2023/04/17 00:51:23;;;;;;;42.40;32.10;;;12.90;99.90;;;;;;4946483;28;20493;-86
2023/04/17 00:53:58;;;;;;;40.53;31.20;;;12.90;99.90;;;;;;4946582;28;20456;-84
2023/04/17 00:56:43;;;;;;;38.57;32.17;;;12.80;99.90;;;;;;4961182;28;20548;-85
2023/04/17 00:59:23;;;;;;;39.67;31.77;;;12.90;99.90;;;;;;4947209;29;20485;-83
2023/04/17 01:02:01;;;;;;;44.80;31.33;;;12.90;99.90;;;;;;4943046;29;20536;-83
2023/04/17 01:04:36;;;;;;;46.50;32.80;;;12.80;99.90;;;;;;4948296;28;20485;-83
2023/04/17 01:07:29;;;;;;;45.07;33.47;;;13.00;99.90;;;;;;4937293;29;20499;-81
2023/04/17 01:10:07;;;;;;;41.07;32.03;;;12.90;99.90;;;;;;4934303;29;20728;-83
2023/04/17 01:12:42;;;;;;;40.77;30.67;;;13.10;99.90;;;;;;4915386;29;20565;-86
2023/04/17 01:15:10;;;;;;;40.60;31.30;;;12.90;99.90;;;;;;4932861;29;20568;-83
2023/04/17 01:17:40;;;;;;;39.20;31.00;;;12.80;99.90;;;;;;4931611;29;20477;-84
2023/04/17 01:20:12;;;;;;;38.03;29.40;;;12.90;99.90;;;;;;4929995;29;21044;-85
2023/04/17 01:22:39;;;;;;;45.63;32.77;;;12.90;99.90;;;;;;4930020;29;20556;-83
2023/04/17 01:25:26;;;;;;;38.77;31.80;;;13.10;99.90;;;;;;4945815;28;20449;-84
2023/04/17 01:28:04;;;;;;;38.07;30.50;;;13.00;99.90;;;;;;4927513;29;20507;-83
2023/04/17 01:30:35;;;;;;;44.63;31.37;;;12.80;99.90;;;;;;4928078;29;21431;-83
2023/04/17 01:33:07;;;;;;;41.37;31.73;;;12.70;99.90;;;;;;4930044;29;20473;-82
2023/04/17 01:36:11;;;;;;;41.00;30.27;;;12.80;99.90;;;;;;4928530;29;20462;-83
2023/04/17 01:38:43;;;;;;;41.53;29.63;;;12.70;99.90;;;;;;4925908;29;20453;-83
2023/04/17 01:41:23;;;;;;;34.77;29.20;;;12.70;99.90;;;;;;4941832;28;20487;-83
2023/04/17 01:43:56;;;;;;;40.00;33.07;;;12.60;99.90;;;;;;4942826;28;21058;-84
2023/04/17 01:46:25;;;;;;;41.17;31.50;;;12.60;99.90;;;;;;4930785;29;20460;-84
2023/04/17 01:48:56;;;;;;;43.07;34.37;;;12.60;99.90;;;;;;4933330;29;20515;-85
2023/04/17 01:51:23;;;;;;;40.47;30.90;;;12.60;99.90;;;;;;4928073;29;20493;-83
2023/04/17 01:54:03;;;;;;;39.77;30.83;;;12.60;99.90;;;;;;4930032;29;20493;-83
2023/04/17 01:56:41;;;;;;;41.70;31.47;;;12.70;99.90;;;;;;4932821;29;20501;-82
2023/04/17 01:59:19;;;;;;;41.23;31.17;;;12.70;99.90;;;;;;4928811;29;20456;-83
2023/04/17 02:01:55;;;;;;;36.93;30.63;;;12.70;99.90;;;;;;4932614;29;20475;-82
2023/04/17 02:04:28;;;;;;;36.77;30.20;;;12.60;99.90;;;;;;4927587;29;20492;-82
2023/04/17 02:06:58;;;;;;;41.33;31.20;;;12.60;99.90;;;;;;4926244;29;20486;-82
2023/04/17 02:09:29;;;;;;;38.03;30.43;;;12.70;99.90;;;;;;4940547;28;20461;-84
2023/04/17 02:11:56;;;;;;;38.47;29.63;;;12.70;99.90;;;;;;4938129;28;20458;-83
2023/04/17 02:14:24;;;;;;;37.53;29.80;;;12.60;99.90;;;;;;4941486;28;20544;-83
2023/04/17 02:16:58;;;;;;;36.20;28.83;;;12.70;99.90;;;;;;4940652;28;20489;-83
2023/04/17 02:19:27;;;;;;;37.63;29.87;;;12.70;99.90;;;;;;4934002;29;20465;-83
2023/04/17 02:21:56;;;;;;;40.27;29.93;;;12.60;99.90;;;;;;4901669;29;20476;-85
2023/04/17 02:24:25;;;;;;;40.20;29.90;;;12.60;99.90;;;;;;4952072;28;20461;-83
2023/04/17 02:27:08;;;;;;;36.33;29.13;;;12.50;99.90;;;;;;4936415;29;20492;-85
2023/04/17 02:29:40;;;;;;;35.30;29.90;;;12.60;99.90;;;;;;4936171;29;20460;-83
2023/04/17 02:32:19;;;;;;;40.87;32.73;;;12.70;99.90;;;;;;4944995;28;20561;-86
2023/04/17 02:35:06;;;;;;;37.63;29.60;;;12.60;99.90;;;;;;4935395;28;20897;-85
2023/04/17 02:37:41;;;;;;;43.63;31.33;;;12.90;99.90;;;;;;4938962;28;20485;-84
2023/04/17 02:40:22;;;;;;;38.93;29.60;;;12.80;99.90;;;;;;4925692;29;20448;-84
2023/04/17 02:43:05;;;;;;;37.10;30.80;;;12.70;99.90;;;;;;4939399;29;20446;-83
2023/04/17 02:45:40;;;;;;;38.60;30.80;;;12.70;99.90;;;;;;4927544;29;20500;-85
2023/04/17 02:48:11;;;;;;;38.40;29.90;;;12.60;99.90;;;;;;4925788;29;20552;-85
2023/04/17 02:50:43;;;;;;;39.93;29.50;;;12.60;99.90;;;;;;4927488;29;20613;-85
2023/04/17 02:53:25;;;;;;;35.73;29.33;;;12.50;99.90;;;;;;4925065;29;20500;-83
2023/04/17 02:55:58;;;;;;;38.53;29.07;;;12.50;99.90;;;;;;4922896;29;20621;-83
2023/04/17 02:58:26;;;;;;;36.80;28.17;;;12.80;99.90;;;;;;4921913;29;20485;-83
2023/04/17 03:01:05;;;;;;;40.23;29.70;;;12.70;99.90;;;;;;4920136;28;20474;-83
2023/04/17 03:04:03;;;;;;;37.13;30.27;;;12.80;99.90;;;;;;4941561;28;20490;-85
2023/04/17 03:06:55;;;;;;;41.37;30.63;;;12.90;99.90;;;;;;4927207;29;20552;-83
2023/04/17 03:09:36;;;;;;;36.73;28.67;;;12.90;99.90;;;;;;4930595;29;20489;-83
2023/04/17 03:12:22;;;;;;;39.17;28.80;;;12.70;99.90;;;;;;4930189;29;20469;-84
2023/04/17 03:15:06;;;;;;;38.63;28.50;;;12.60;99.90;;;;;;4933346;29;20453;-84
2023/04/17 03:17:49;;;;;;;35.07;28.60;;;12.60;99.90;;;;;;4927975;29;20540;-84
2023/04/17 03:20:57;;;;;;;38.23;29.37;;;12.50;99.90;;;;;;4935330;28;20976;-84
2023/04/17 03:23:47;;;;;;;39.53;30.70;;;12.70;99.90;;;;;;4929898;29;20485;-83
2023/04/17 03:26:55;;;;;;;38.23;30.20;;;12.60;99.90;;;;;;4848251;29;20483;-84
2023/04/17 03:32:55;;;;;;;39.17;30.13;;;12.60;99.90;;;;;;4849386;29;20488;-84
2023/04/17 03:35:49;;;;;;;38.83;29.80;;;12.60;99.90;;;;;;4845887;29;20523;-85
2023/04/17 03:38:38;;;;;;;44.30;32.37;;;12.90;99.90;;;;;;4847449;29;21094;-85
2023/04/17 03:41:41;;;;;;;40.03;31.23;;;13.10;99.90;;;;;;4848922;29;20590;-84
2023/04/17 03:44:54;;;;;;;45.10;33.47;;;13.00;99.90;;;;;;4923605;29;20480;-85
2023/04/17 03:47:40;;;;;;;36.20;29.50;;;13.00;99.90;;;;;;4908849;29;20580;-83
2023/04/17 03:50:31;;;;;;;41.20;30.07;;;12.90;99.90;;;;;;4927276;29;20458;-84
2023/04/17 03:53:29;;;;;;;34.50;28.40;;;12.70;99.90;;;;;;4927422;29;20581;-84
2023/04/17 03:56:24;;;;;;;34.97;28.53;;;12.60;99.90;;;;;;4938627;28;20485;-84
2023/04/17 03:59:09;;;;;;;35.57;29.63;;;12.60;99.90;;;;;;4920472;29;20497;-84
2023/04/17 04:02:01;;;;;;;40.50;28.87;;;12.60;99.90;;;;;;4924035;29;20563;-84
2023/04/17 04:04:41;;;;;;;37.10;30.03;;;12.80;99.90;;;;;;4938029;28;20473;-83
2023/04/17 04:07:43;;;;;;;39.03;28.70;;;12.80;99.90;;;;;;4937363;28;20520;-83
2023/04/17 04:10:26;;;;;;;35.77;28.03;;;12.60;99.90;;;;;;4922384;29;20549;-85
2023/04/17 04:13:16;;;;;;;39.60;29.20;;;12.70;99.90;;;;;;4930969;28;20501;-85
2023/04/17 04:16:14;;;;;;;36.17;27.57;;;12.60;99.90;;;;;;4882518;29;20551;-84
2023/04/17 04:19:13;;;;;;;35.67;29.90;;;12.50;99.90;;;;;;4859792;29;20513;-84
2023/04/17 04:22:01;;;;;;;39.23;29.90;;;12.90;99.90;;;;;;4852140;29;20468;-83
2023/04/17 04:25:08;;;;;;;33.20;28.27;;;12.70;99.90;;;;;;4865777;29;20464;-84
2023/04/17 04:27:51;;;;;;;31.40;26.63;;;12.60;99.90;;;;;;4856431;29;20472;-84
2023/04/17 04:30:54;;;;;;;34.50;26.73;;;12.40;99.90;;;;;;4864318;29;20463;-84
2023/04/17 04:33:47;;;;;;;32.93;28.77;;;12.90;99.90;;;;;;4848854;29;20569;-85
2023/04/17 04:36:55;;;;;;;35.07;28.70;;;12.60;99.90;;;;;;4865090;29;20487;-84
2023/04/17 04:39:42;;;;;;;35.23;28.27;;;12.60;99.90;;;;;;4852552;29;20563;-85
2023/04/17 04:42:41;;;;;;;33.07;27.17;;;13.00;99.90;;;;;;4854483;29;20464;-84
2023/04/17 04:45:40;;;;;;;41.03;28.40;;;12.70;99.90;;;;;;4871414;29;20543;-86
2023/04/17 04:48:40;;;;;;;30.33;25.47;;;12.50;99.90;;;;;;4872757;29;20569;-82
2023/04/17 04:51:30;;;;;;;33.40;27.03;;;12.30;99.90;;;;;;4874806;29;20481;-83
2023/04/17 04:54:08;;;;;;;33.00;26.80;;;12.30;99.90;;;;;;4927763;28;20489;-85
2023/04/17 04:56:51;;;;;;;35.47;27.13;;;12.40;99.90;;;;;;4927438;28;20469;-82
2023/04/17 04:59:40;;;;;;;32.00;27.07;;;12.40;99.90;;;;;;4962766;28;20477;-84
2023/04/17 05:02:20;;;;;;;32.80;27.10;;;12.40;99.90;;;;;;4943950;28;20518;-83
2023/04/17 05:05:49;;;;;;;;;;;;;;;;;;;;;
2023/04/17 05:08:29;;;;;;;32.73;26.27;;;12.70;99.90;;;;;;4935399;29;20519;-84
2023/04/17 05:11:22;;;;;;;31.40;27.80;;;12.70;99.90;;;;;;4860291;29;20457;-84
2023/04/17 05:14:14;;;;;;;30.93;26.30;;;12.50;99.90;;;;;;4834343;29;20514;-83
2023/04/17 05:17:05;;;;;;;34.33;28.17;;;12.90;99.90;;;;;;4837766;29;20478;-84
2023/04/17 05:23:22;;;;;;;33.00;25.63;;;12.60;99.90;;;;;;4789115;29;20461;-83
2023/04/17 05:26:09;;;;;;;34.20;26.00;;;12.80;99.90;;;;;;4789992;29;20532;-83
2023/04/17 05:29:14;;;;;;;;;;;;;;;;;;;;;
2023/04/17 05:32:03;;;;;;;33.50;26.73;;;12.60;99.90;;;;;;4785498;29;20485;-83
2023/04/17 05:35:09;;;;;;;;;;;;;;;;;;;;;
2023/04/17 05:38:02;;;;;;;33.40;26.47;;;12.90;99.90;;;;;;4798428;29;20588;-84
2023/04/17 05:41:17;;;;;;;34.07;25.93;;;12.90;99.90;;;;;;4985900;23;20479;-83
2023/04/17 05:44:07;;;;;;;29.47;25.00;;;12.90;99.90;;;;;;4981164;28;20527;-85
2023/04/17 05:46:59;;;;;;;30.50;25.00;;;12.80;99.90;;;;;;4979577;28;20546;-86
2023/04/17 05:50:12;;;;;;;28.53;24.50;;;12.60;99.90;;;;;;4970112;28;20654;-84
2023/04/17 05:56:16;;;;;;;36.30;27.40;;;12.70;99.90;;;;;;5108210;23;20698;-85
2023/04/17 05:59:15;;;;;;;32.53;25.30;;;13.00;99.90;;;;;;4961489;28;20474;-83
2023/04/17 06:02:17;;;;;;;31.70;26.60;;;13.00;99.90;;;;;;4972403;28;20555;-83
2023/04/17 06:04:57;;;;;;;28.30;24.60;;;12.60;99.90;;;;;;4972363;28;20551;-85
2023/04/17 06:11:07;;;;;;;31.23;25.93;;;12.70;99.90;;;;;;4977905;28;20467;-82
2023/04/17 06:14:21;;;;;;;31.13;24.47;;;12.70;99.90;;;;;;4972119;28;20476;-84
2023/04/17 06:16:55;;;;;;;29.23;24.60;;;12.70;99.90;;;;;;4972187;28;20487;-84
2023/04/17 06:20:01;;;;;;;30.30;26.03;;;12.80;99.90;;;;;;4973634;28;20511;-85
2023/04/17 06:22:43;;;;;;;30.63;24.33;;;12.70;99.90;;;;;;4973168;28;20464;-86
2023/04/17 06:29:12;;;;;;;26.93;21.83;;;13.00;99.90;;;;;;4910231;29;20464;-84
2023/04/17 06:32:24;;;;;;;29.57;22.13;;;12.90;99.90;;;;;;4881326;29;20471;-84
2023/04/17 06:35:44;;;;;;;31.80;24.27;;;12.90;99.90;;;;;;4881999;29;20534;-83
2023/04/17 06:39:07;;;;;;;30.73;22.50;;;12.80;99.90;;;;;;4871781;29;20513;-85
2023/04/17 06:42:32;;;;;;;25.73;22.93;;;12.90;99.90;;;;;;4877481;29;20563;-84
2023/04/17 06:45:46;;;;;;;28.53;24.77;;;12.90;99.90;;;;;;4894088;29;20476;-86
2023/04/17 06:48:51;;;;;;;35.53;26.77;;;12.90;99.90;;;;;;4893786;29;20443;-84
2023/04/17 06:51:58;;;;;;;30.80;23.43;;;13.10;99.90;;;;;;4873199;29;20553;-83
2023/04/17 07:06:18;;;;;;;33.53;25.33;;;13.10;99.90;;;;;;4874125;29;20505;-83
2023/04/17 07:09:18;;;;;;;28.93;22.53;;;13.20;99.60;;;;;;4927472;29;20477;-84
2023/04/17 07:15:31;;;;;;;28.80;22.87;;;13.20;99.70;;;;;;4925081;29;20501;-83
2023/04/17 07:18:28;;;;;;;30.83;23.03;;;13.00;99.90;;;;;;4928806;29;20468;-84
2023/04/17 07:21:31;;;;;;;27.87;23.90;;;12.80;99.90;;;;;;4913840;29;21158;-81
2023/04/17 07:24:08;;;;;;;27.77;23.40;;;13.10;99.90;;;;;;4927265;29;20517;-83
2023/04/17 07:27:19;;;;;;;29.80;23.20;;;12.80;99.90;;;;;;4932010;29;20481;-86
2023/04/17 07:29:53;;;;;;;26.10;23.30;;;13.00;99.90;;;;;;4940809;29;20480;-83
2023/04/17 07:32:45;;;;;;;32.10;24.43;;;13.10;99.90;;;;;;4917489;29;20462;-82
2023/04/17 07:35:37;;;;;;;28.87;24.20;;;13.10;99.90;;;;;;4930401;29;20584;-84
2023/04/17 07:38:41;;;;;;;30.90;24.43;;;13.40;99.70;;;;;;4918550;29;20559;-84
2023/04/17 07:41:55;;;;;;;30.60;24.20;;;13.20;99.60;;;;;;4944803;28;20525;-84
2023/04/17 07:44:49;;;;;;;28.50;24.80;;;12.80;99.90;;;;;;4987432;28;20463;-85
2023/04/17 07:47:46;;;;;;;33.80;26.00;;;12.80;99.90;;;;;;4977877;28;20475;-81
2023/04/17 07:50:34;;;;;;;35.30;25.00;;;13.20;99.90;;;;;;4967335;28;20468;-83
2023/04/17 07:53:18;;;;;;;30.77;24.53;;;13.50;99.50;;;;;;4968698;28;20464;-83
2023/04/17 07:59:41;;;;;;;26.57;23.00;;;13.30;99.40;;;;;;4965387;28;20538;-83
2023/04/17 08:02:43;;;;;;;26.77;23.00;;;13.20;99.90;;;;;;4966027;28;20464;-84
2023/04/17 08:05:58;;;;;;;29.20;23.50;;;13.50;99.20;;;;;;4967013;28;20542;-84
2023/04/17 08:12:06;;;;;;;;;;;;;;;;;;;;;
2023/04/17 08:15:23;;;;;;;;;;;;;;;;;;;;;
2023/04/17 08:18:24;;;;;;;26.53;21.77;;;13.20;99.40;;;;;;4900502;29;20510;-84
2023/04/17 08:21:09;;;;;;;33.53;23.97;;;13.40;99.70;;;;;;4894882;29;20911;-85
2023/04/17 08:24:10;;;;;;;24.83;22.07;;;13.50;99.60;;;;;;4909943;29;20423;-83
2023/04/17 08:30:01;;;;;;;26.47;21.57;;;13.70;98.90;;;;;;5373530;23;21093;-85
2023/04/17 08:44:41;;;;;;;27.07;20.50;;;14.40;97.10;;;;;;5141217;23;20515;-82
2023/04/17 08:51:15;;;;;;;23.00;19.53;;;14.40;96.30;;;;;;4918118;29;20481;-83
2023/04/17 09:00:14;;;;;;;21.00;17.83;;;14.00;96.30;;;;;;5388827;23;20488;-83
2023/04/17 09:03:14;;;;;;;22.73;18.77;;;14.40;97.30;;;;;;4971275;28;20467;-83
2023/04/17 09:06:12;;;;;;;19.13;17.13;;;14.60;96.20;;;;;;4931555;23;20495;-83
2023/04/17 09:09:00;;;;;;;19.73;16.87;;;14.60;95.70;;;;;;4983570;28;20464;-84
2023/04/17 09:11:44;;;;;;;18.83;15.67;;;14.60;95.80;;;;;;4981501;28;20471;-84
2023/04/17 09:14:37;;;;;;;17.37;15.47;;;14.40;95.80;;;;;;4964615;28;20487;-85
2023/04/17 09:17:20;;;;;;;17.17;15.40;;;14.60;96.00;;;;;;4978989;28;20864;-84
2023/04/17 09:20:12;;;;;;;17.50;14.50;;;14.80;95.20;;;;;;4965249;28;20463;-83
2023/04/17 09:23:06;;;;;;;15.70;14.10;;;14.60;94.50;;;;;;4964538;28;21258;-84
2023/04/17 09:25:54;;;;;;;14.93;13.30;;;15.10;93.90;;;;;;4964811;28;20514;-83
2023/04/17 09:28:28;;;;;;;14.20;12.70;;;15.70;92.40;;;;;;4973947;28;20467;-83
2023/04/17 09:31:23;;;;;;;31.63;15.33;;;16.80;91.50;;;;;;4967589;28;20825;-83
2023/04/17 09:40:20;;;;;;;18.20;15.10;;;17.50;85.30;;;;;;4933157;29;20481;-83
2023/04/17 09:43:41;;;;;;;18.03;16.13;;;17.00;87.40;;;;;;4863807;29;20501;-85
2023/04/17 09:46:39;;;;;;;;;;;;;;;;;;;;;
2023/04/17 09:49:32;;;;;;;;;;;;;;;;;;;;;
2023/04/17 09:52:51;;;;;;;17.50;15.17;;;18.00;84.10;;;;;;4931294;29;20607;-85
2023/04/17 09:55:38;;;;;;;15.87;14.27;;;19.60;79.60;;;;;;4933705;29;20597;-84
2023/04/17 09:58:44;;;;;;;17.80;15.90;;;21.40;71.30;;;;;;4930312;29;21743;-85
2023/04/17 10:02:34;;;;;;;17.97;16.13;;;21.70;65.40;;;;;;4889672;29;22340;-86
2023/04/17 10:05:19;;;;;;;17.63;16.03;;;20.80;66.70;;;;;;4919861;29;20504;-84
2023/04/17 10:08:16;;;;;;;17.27;15.43;;;22.00;63.20;;;;;;4928919;29;20462;-86
2023/04/17 10:11:28;;;;;;;17.20;15.50;;;22.80;60.60;;;;;;4930377;29;20597;-84
2023/04/17 10:14:38;;;;;;;16.37;14.67;;;22.70;58.70;;;;;;4845927;29;20622;-85
2023/04/17 10:18:12;;;;;;;15.07;13.47;;;22.20;58.40;;;;;;4856104;29;21143;-83
2023/04/17 10:21:45;;;;;;;14.53;13.13;;;21.60;58.30;;;;;;4866663;29;20449;-85
2023/04/17 10:24:54;;;;;;;;;;;;;;;;;;;;;
2023/04/17 10:28:06;;;;;;;15.87;14.33;;;20.50;58.60;;;;;;4885397;29;20742;-86
2023/04/17 10:31:30;;;;;;;14.17;12.70;;;19.70;61.20;;;;;;4874793;29;20452;-83
2023/04/17 10:34:37;;;;;;;13.70;11.77;;;20.10;61.50;;;;;;4925030;29;20500;-85
2023/04/17 10:37:21;;;;;;;12.20;11.00;;;19.50;62.90;;;;;;4929325;29;20536;-83
2023/04/17 10:40:27;;;;;;;10.63;9.57;;;19.80;62.90;;;;;;4933694;29;20977;-84
2023/04/17 10:43:37;;;;;;;11.00;9.90;;;20.60;59.10;;;;;;4928813;29;20497;-83
2023/04/17 10:46:29;;;;;;;11.50;9.97;;;20.30;56.90;;;;;;4925465;29;21941;-84
2023/04/17 10:49:27;;;;;;;11.97;10.77;;;20.10;57.00;;;;;;4928338;28;20472;-84
2023/04/17 10:52:48;;;;;;;11.33;10.30;;;20.80;56.60;;;;;;4930157;29;20469;-85
2023/04/17 10:56:06;;;;;;;10.93;9.93;;;21.40;55.80;;;;;;4927986;29;20492;-84
2023/04/17 11:02:49;;;;;;;10.93;10.00;;;22.20;53.00;;;;;;4944774;29;20497;-85
2023/04/17 11:05:53;;;;;;;10.23;9.43;;;22.40;52.90;;;;;;4939162;29;20472;-84
2023/04/17 11:08:49;;;;;;;11.07;10.07;;;23.00;51.20;;;;;;4947512;28;20450;-84
2023/04/17 11:12:02;;;;;;;10.13;9.23;;;22.50;50.60;;;;;;4946644;28;20456;-85
2023/04/17 11:15:15;;;;;;;11.07;9.97;;;22.10;50.80;;;;;;4943456;28;20532;-86
2023/04/17 11:18:22;;;;;;;10.90;9.87;;;22.10;51.10;;;;;;4950384;28;20457;-86
2023/04/17 11:21:46;;;;;;;;;;;;;;;;;;;;;
2023/04/17 11:25:13;;;;;;;11.67;10.63;;;22.40;51.80;;;;;;4941610;29;20457;-86
2023/04/17 11:28:16;;;;;;;9.17;8.37;;;22.00;52.60;;;;;;4916298;29;20461;-83
2023/04/17 11:31:04;;;;;;;10.00;9.20;;;21.70;51.90;;;;;;4925138;29;20490;-84
2023/04/17 11:36:55;;;;;;;10.23;9.33;;;21.70;51.00;;;;;;4926553;29;20505;-85
2023/04/17 11:39:42;;;;;;;10.03;9.13;;;22.30;51.80;;;;;;4927155;29;20470;-84
2023/04/17 11:42:44;;;;;;;10.57;9.73;;;22.80;51.00;;;;;;4876157;29;20461;-86
2023/04/17 11:45:33;;;;;;;11.43;10.37;;;22.60;49.60;;;;;;4922119;29;20474;-86
2023/04/17 11:48:21;;;;;;;10.70;9.60;;;22.70;50.60;;;;;;4922157;29;20462;-84
2023/04/17 11:54:48;;;;;;;11.57;8.70;;;22.80;51.50;;;;;;4871075;29;20480;-86
2023/04/17 11:57:54;;;;;;;11.07;10.17;;;22.80;50.90;;;;;;4870548;29;20462;-85
2023/04/17 12:01:14;;;;;;;8.67;7.77;;;23.60;48.10;;;;;;4920128;29;20458;-83
2023/04/17 12:04:57;;;;;;;9.47;8.57;;;23.60;47.90;;;;;;4905364;29;20470;-84
2023/04/17 12:08:12;;;;;;;10.57;8.20;;;23.70;47.80;;;;;;4919179;29;20477;-82
2023/04/17 12:14:45;;;;;;;7.50;6.80;;;22.90;47.80;;;;;;4892756;29;20507;-84
2023/04/17 12:21:42;;;;;;;7.90;7.20;;;23.90;46.90;;;;;;4871000;29;21167;-84
2023/04/17 12:24:54;;;;;;;7.90;7.40;;;23.30;46.80;;;;;;4846595;29;20476;-85
2023/04/17 12:28:27;;;;;;;8.20;7.40;;;24.00;45.60;;;;;;4841817;29;20487;-85
2023/04/17 12:31:47;;;;;;;7.63;6.67;;;23.70;45.30;;;;;;4799765;29;20488;-83
2023/04/17 12:34:50;;;;;;;8.43;7.73;;;23.70;45.70;;;;;;4800897;29;20504;-84
2023/04/17 12:37:47;;;;;;;7.60;6.80;;;23.30;45.10;;;;;;4812258;29;20510;-84
2023/04/17 12:40:45;;;;;;;7.00;6.40;;;22.80;45.70;;;;;;4739903;30;20542;-84
2023/04/17 12:43:31;;;;;;;6.53;6.03;;;22.40;46.20;;;;;;4730437;30;20500;-86
2023/04/17 12:46:29;;;;;;;6.87;6.27;;;22.20;46.90;;;;;;4677468;30;20523;-83
2023/04/17 12:52:58;;;;;;;7.00;5.90;;;22.80;45.50;;;;;;4781033;29;20469;-84
2023/04/17 12:56:08;;;;;;;6.70;6.10;;;23.00;44.90;;;;;;4792598;29;20545;-83
2023/04/17 12:59:05;;;;;;;5.90;5.40;;;22.60;44.90;;;;;;4811579;29;20541;-85
2023/04/17 13:02:15;;;;;;;6.50;5.90;;;21.90;45.70;;;;;;4836289;29;20457;-83
2023/04/17 13:05:11;;;;;;;6.53;6.03;;;22.10;45.60;;;;;;4841597;29;20468;-84
2023/04/17 13:08:13;;;;;;;5.77;5.27;;;22.90;44.60;;;;;;4845165;29;20634;-83
2023/04/17 13:11:07;;;;;;;5.93;5.37;;;22.90;44.20;;;;;;4877547;29;20488;-83
2023/04/17 13:14:08;;;;;;;6.20;5.70;;;22.70;44.20;;;;;;4865474;29;20479;-85
2023/04/17 13:17:21;;;;;;;13.30;5.80;;;22.30;43.90;;;;;;4884833;29;20843;-84
2023/04/17 13:20:13;;;;;;;5.63;5.13;;;21.90;44.40;;;;;;4914410;29;22053;-84
2023/04/17 13:23:13;;;;;;;5.17;4.77;;;21.20;45.20;;;;;;4947649;29;20517;-83
2023/04/17 13:26:12;;;;;;;;;;;;;;;;;;;;;
2023/04/17 13:28:59;;;;;;;7.07;5.60;;;21.00;45.80;;;;;;4951420;28;20466;-84
2023/04/17 13:35:26;;;;;;;7.73;5.53;;;20.20;47.50;;;;;;5353887;23;20488;-83
2023/04/17 13:38:17;;;;;;;6.30;5.80;;;20.50;49.30;;;;;;4946536;28;20549;-82
2023/04/17 13:41:09;;;;;;;6.10;5.50;;;20.90;47.70;;;;;;4963266;28;20457;-85
2023/04/17 13:47:58;;;;;;;6.97;6.27;;;21.80;46.90;;;;;;4932151;29;20709;-84
2023/04/17 13:51:08;;;;;;;6.97;5.73;;;22.00;46.40;;;;;;4927133;29;20500;-84
2023/04/17 13:54:09;;;;;;;11.50;6.80;;;21.60;46.10;;;;;;4928069;29;20501;-84
2023/04/17 14:00:34;;;;;;;7.37;6.67;;;20.50;48.60;;;;;;4933320;28;20533;-84
2023/04/17 14:03:27;;;;;;;7.07;6.40;;;20.40;48.90;;;;;;4930022;29;20761;-84
2023/04/17 14:06:20;;;;;;;8.17;7.27;;;20.30;49.10;;;;;;4872661;29;20494;-85
2023/04/17 14:09:22;;;;;;;6.80;6.20;;;20.10;50.10;;;;;;4882583;29;20850;-84
2023/04/17 14:12:18;;;;;;;7.97;6.50;;;19.70;50.60;;;;;;4869595;29;20744;-85
2023/04/17 14:15:15;;;;;;;8.60;6.47;;;19.30;51.10;;;;;;4853163;29;20560;-83
2023/04/17 14:18:11;;;;;;;7.47;6.80;;;19.40;51.60;;;;;;4885709;29;20478;-85
2023/04/17 14:21:01;;;;;;;6.77;6.20;;;19.20;51.60;;;;;;4870456;29;20464;-84
2023/04/17 14:23:55;;;;;;;7.50;6.70;;;19.10;51.00;;;;;;4880418;29;20524;-84
2023/04/17 14:27:00;;;;;;;10.97;6.57;;;19.00;51.10;;;;;;4883318;29;20482;-84
2023/04/17 14:30:08;;;;;;;11.53;6.30;;;18.70;51.10;;;;;;4870861;29;20468;-83
2023/04/17 14:33:12;;;;;;;7.77;5.87;;;18.70;51.40;;;;;;4838657;29;20550;-84
2023/04/17 14:39:35;;;;;;;6.70;6.07;;;19.10;51.70;;;;;;4868176;29;20476;-83
2023/04/17 14:42:16;;;;;;;6.80;6.10;;;19.20;51.10;;;;;;4870329;29;21592;-85
2023/04/17 14:45:17;;;;;;;;;;;;;;;;;;;;;
2023/04/17 14:48:22;;;;;;;8.00;6.83;;;18.90;51.60;;;;;;4922195;29;20493;-84
2023/04/17 14:51:27;;;;;;;6.57;5.93;;;18.80;51.90;;;;;;4927569;29;20470;-85
2023/04/17 14:57:34;;;;;;;7.17;6.43;;;18.80;51.60;;;;;;4924854;29;21029;-84
2023/04/17 15:00:32;;;;;;;7.70;6.90;;;18.80;52.30;;;;;;4923781;29;20545;-84
2023/04/17 15:03:33;;;;;;;7.70;7.00;;;18.90;52.10;;;;;;4928257;29;21537;-85
2023/04/17 15:09:46;;;;;;;8.10;7.23;;;18.60;51.10;;;;;;4907857;29;20465;-82
2023/04/17 15:12:52;;;;;;;7.90;7.17;;;18.50;51.10;;;;;;4934904;29;20461;-85
2023/04/17 15:16:10;;;;;;;6.87;6.27;;;18.60;51.10;;;;;;4926776;29;20498;-86
2023/04/17 15:18:50;;;;;;;7.00;6.33;;;18.50;51.60;;;;;;4925454;29;20469;-82
2023/04/17 15:21:41;;;;;;;7.90;7.10;;;18.50;52.20;;;;;;4940919;28;20450;-85
2023/04/17 15:24:47;;;;;;;9.30;7.57;;;18.60;52.00;;;;;;4927625;29;20458;-84
2023/04/17 15:28:04;;;;;;;7.40;6.53;;;18.70;51.90;;;;;;4934913;29;20474;-84
2023/04/17 15:30:55;;;;;;;14.23;9.30;;;18.80;52.10;;;;;;4920993;29;20450;-83
2023/04/17 15:34:13;;;;;;;;;;;;;;;;;;;;;
2023/04/17 15:37:17;;;;;;;8.13;7.43;;;18.90;50.70;;;;;;4925160;29;20553;-83
2023/04/17 15:43:12;;;;;;;8.87;7.00;;;18.90;50.50;;;;;;4920557;29;20478;-83
2023/04/17 15:45:52;;;;;;;;;;;;;;;;;;;;;
2023/04/17 15:48:22;;;;;;;7.53;6.83;;;18.80;50.40;;;;;;4939550;29;20460;-84
2023/04/17 15:50:56;;;;;;;9.30;7.70;;;18.90;50.00;;;;;;4934301;29;20465;-83
2023/04/17 15:53:36;;;;;;;8.10;6.93;;;18.70;48.50;;;;;;4955102;28;20508;-85
2023/04/17 15:56:20;;;;;;;7.93;7.13;;;18.50;49.70;;;;;;5059519;23;20536;-85
2023/04/17 15:58:47;;;;;;;9.43;8.10;;;18.40;49.50;;;;;;4959709;28;20519;-83
2023/04/17 16:01:19;;;;;;;9.90;7.60;;;18.50;49.40;;;;;;4948624;29;20484;-82
2023/04/17 16:03:51;;;;;;;8.40;7.60;;;18.50;49.70;;;;;;4949597;28;20551;-83
2023/04/17 16:06:30;;;;;;;7.77;6.83;;;18.50;50.60;;;;;;4948105;28;20476;-85
2023/04/17 16:09:14;;;;;;;9.40;7.67;;;18.40;50.00;;;;;;4961612;28;20472;-85
2023/04/17 16:11:41;;;;;;;9.20;7.67;;;18.30;50.00;;;;;;4947957;28;20461;-83
2023/04/17 16:14:09;;;;;;;7.90;7.20;;;18.20;50.70;;;;;;4950084;29;20457;-84
2023/04/17 16:16:52;;;;;;;7.70;6.90;;;18.30;50.80;;;;;;4949844;28;20830;-84
2023/04/17 16:19:25;;;;;;;12.47;7.60;;;18.00;50.70;;;;;;4950179;29;20733;-84
2023/04/17 16:21:56;;;;;;;9.93;7.40;;;17.90;50.60;;;;;;4948921;29;21052;-85
2023/04/17 16:24:29;;;;;;;7.90;7.10;;;17.80;50.00;;;;;;4963154;28;20683;-84
2023/04/17 16:27:14;;;;;;;7.83;7.13;;;17.70;50.30;;;;;;4948211;28;20489;-83
2023/04/17 16:29:50;;;;;;;7.87;7.17;;;17.50;50.50;;;;;;4949177;28;20472;-83
2023/04/17 16:32:24;;;;;;;8.43;6.30;;;17.80;50.50;;;;;;4952026;28;20448;-83
2023/04/17 16:35:02;;;;;;;8.17;7.40;;;17.90;50.20;;;;;;4954328;28;20465;-83
2023/04/17 16:38:09;;;;;;;9.00;8.10;;;17.60;49.80;;;;;;4954652;28;20611;-85
2023/04/17 16:40:55;;;;;;;9.93;7.27;;;17.60;50.70;;;;;;4924060;28;20582;-84
2023/04/17 16:43:34;;;;;;;7.93;7.10;;;17.60;50.60;;;;;;4954187;28;20471;-83
2023/04/17 16:46:16;;;;;;;10.00;7.17;;;17.70;51.00;;;;;;4956912;28;20475;-82
2023/04/17 16:48:55;;;;;;;6.87;6.23;;;17.80;50.90;;;;;;4957245;28;20496;-84